createdAt,value
2022-10-08T00:01:30.681Z,101768.81
2022-10-08T00:03:59.682Z,101754.72
2022-10-08T00:06:30.225Z,101754.69
2022-10-08T00:09:02.418Z,101759.91
2022-10-08T00:11:33.336Z,101760.75
2022-10-08T00:14:02.548Z,101756.47
2022-10-08T00:16:37.037Z,101755.66
2022-10-08T00:19:16.242Z,101763.63
2022-10-08T00:21:48.298Z,101761.06
2022-10-08T00:24:18.904Z,101764.56
2022-10-08T00:26:46.415Z,101764.72
2022-10-08T00:29:17.857Z,101759.53
2022-10-08T00:31:47.382Z,101763.13
2022-10-08T00:34:24.790Z,101764.13
2022-10-08T00:36:54.929Z,101765.94
2022-10-08T00:39:24.810Z,101771.31
2022-10-08T00:41:55.019Z,101776.53
2022-10-08T00:44:51.613Z,101777.38
2022-10-08T00:47:34.870Z,101779.16
2022-10-08T00:50:09.211Z,101771.28
2022-10-08T00:52:42.589Z,101766.97
2022-10-08T00:55:14.197Z,101771.34
2022-10-08T00:57:43.870Z,101778.31
2022-10-08T01:00:18.338Z,101774.81
2022-10-08T01:02:46.707Z,101780.06
2022-10-08T01:05:17.736Z,101784.50
2022-10-08T01:07:54.248Z,101785.41
2022-10-08T01:10:31.143Z,101779.31
2022-10-08T01:13:08.027Z,101791.56
2022-10-08T01:15:43.148Z,101787.34
2022-10-08T01:18:15.896Z,101791.75
2022-10-08T01:21:03.338Z,101791.78
2022-10-08T01:24:15.342Z,101789.22
2022-10-08T01:26:46.315Z,101787.50
2022-10-08T01:29:25.530Z,101783.94
2022-10-08T01:32:01.916Z,101796.16
2022-10-08T01:34:41.013Z,101802.28
2022-10-08T01:37:13.016Z,101802.28
2022-10-08T01:39:44.265Z,101795.31
2022-10-08T01:42:15.908Z,101797.06
2022-10-08T01:44:54.417Z,101792.75
2022-10-08T01:47:28.011Z,101792.81
2022-10-08T01:50:01.282Z,101800.69
2022-10-08T01:52:37.587Z,101789.34
2022-10-08T01:55:15.152Z,101797.28
2022-10-08T01:57:45.550Z,101795.63
2022-10-08T02:00:15.322Z,101791.25
2022-10-08T02:02:43.665Z,101798.28
2022-10-08T02:05:12.407Z,101795.66
2022-10-08T02:07:42.534Z,101791.31
2022-10-08T02:10:19.282Z,101788.72
2022-10-08T02:12:48.214Z,101786.97
2022-10-08T02:15:30.409Z,101793.97
2022-10-08T02:18:14.139Z,101794.84
2022-10-08T02:20:44.523Z,101791.41
2022-10-08T02:23:38.990Z,101795.75
2022-10-08T02:26:10.472Z,101791.31
2022-10-08T02:29:01.938Z,101795.69
2022-10-08T02:31:45.587Z,101796.53
2022-10-08T02:34:22.909Z,101793.88
2022-10-08T02:37:33.693Z,101793.91
2022-10-08T02:40:06.766Z,101788.72
2022-10-08T02:42:41.335Z,101792.31
2022-10-08T02:45:13.824Z,101791.38
2022-10-08T02:47:45.606Z,101794.00
2022-10-08T02:50:19.287Z,101800.09
2022-10-08T02:52:49.231Z,101800.13
2022-10-08T02:55:26.291Z,101801.03
2022-10-08T02:58:00.963Z,101798.41
2022-10-08T03:00:38.944Z,101802.81
2022-10-08T03:03:20.574Z,101801.94
2022-10-08T03:05:53.883Z,101807.19
2022-10-08T03:08:22.572Z,101801.97
2022-10-08T03:10:50.778Z,101807.34
2022-10-08T03:13:18.621Z,101804.69
2022-10-08T03:15:48.724Z,101803.81
2022-10-08T03:18:17.124Z,101816.16
2022-10-08T03:20:47.656Z,101816.16
2022-10-08T03:23:18.634Z,101808.19
2022-10-08T03:25:46.101Z,101809.03
2022-10-08T03:28:14.058Z,101809.00
2022-10-08T03:30:41.646Z,101809.91
2022-10-08T03:33:09.200Z,101808.13
2022-10-08T03:35:39.628Z,101809.00
2022-10-08T03:38:08.676Z,101809.84
2022-10-08T03:40:36.046Z,101802.84
2022-10-08T03:43:03.407Z,101807.22
2022-10-08T03:45:30.627Z,101809.06
2022-10-08T03:47:59.057Z,101808.19
2022-10-08T03:50:29.094Z,101815.16
2022-10-08T03:52:56.523Z,101816.91
2022-10-08T03:55:23.742Z,101815.19
2022-10-08T03:57:53.266Z,101822.22
2022-10-08T04:00:21.009Z,101823.13
2022-10-08T04:02:51.175Z,101824.03
2022-10-08T04:05:19.385Z,101834.59
2022-10-08T04:07:47.355Z,101831.03
2022-10-08T04:10:14.782Z,101837.22
2022-10-08T04:12:43.606Z,101829.25
2022-10-08T04:15:12.132Z,101829.25
2022-10-08T04:17:41.747Z,101842.34
2022-10-08T04:20:09.639Z,101837.09
2022-10-08T04:22:37.781Z,101842.31
2022-10-08T04:25:05.165Z,101836.25
2022-10-08T04:27:34.348Z,101833.63
2022-10-08T04:30:02.490Z,101830.06
2022-10-08T04:32:31.131Z,101819.56
2022-10-08T04:34:58.509Z,101815.25
2022-10-08T04:37:29.222Z,101827.44
2022-10-08T04:39:56.591Z,101827.44
2022-10-08T04:42:24.851Z,101833.53
2022-10-08T04:44:53.054Z,101833.59
2022-10-08T04:47:20.556Z,101844.09
2022-10-08T04:49:47.975Z,101844.09
2022-10-08T04:52:17.376Z,101843.25
2022-10-08T04:54:45.135Z,101852.88
2022-10-08T04:57:13.310Z,101849.38
2022-10-08T04:59:53.905Z,101852.03
2022-10-08T05:02:32.319Z,101852.94
2022-10-08T05:04:59.827Z,101855.59
2022-10-08T05:07:29.402Z,101852.94
2022-10-08T05:09:59.002Z,101852.03
2022-10-08T05:12:27.271Z,101853.00
2022-10-08T05:14:54.734Z,101851.25
2022-10-08T05:17:22.127Z,101853.13
2022-10-08T05:19:50.105Z,101853.06
2022-10-08T05:22:17.495Z,101851.22
2022-10-08T05:24:46.255Z,101851.13
2022-10-08T05:27:13.595Z,101844.97
2022-10-08T05:29:41.801Z,101852.03
2022-10-08T05:32:10.406Z,101857.25
2022-10-08T05:34:37.806Z,101858.13
2022-10-08T05:37:05.038Z,101860.81
2022-10-08T05:39:33.515Z,101860.78
2022-10-08T05:42:00.903Z,101859.94
2022-10-08T05:44:29.572Z,101866.91
2022-10-08T05:46:57.485Z,101867.75
2022-10-08T05:49:26.646Z,101871.25
2022-10-08T05:51:54.079Z,101876.63
2022-10-08T05:54:23.460Z,101877.56
2022-10-08T05:56:51.496Z,101885.31
2022-10-08T05:59:22.975Z,101886.22
2022-10-08T06:02:01.648Z,101882.91
2022-10-08T06:04:31.819Z,101880.31
2022-10-08T06:06:59.274Z,101883.69
2022-10-08T06:09:28.196Z,101879.31
2022-10-08T06:11:55.598Z,101882.72
2022-10-08T06:14:24.452Z,101876.56
2022-10-08T06:16:51.854Z,101883.50
2022-10-08T06:19:20.310Z,101878.22
2022-10-08T06:21:47.740Z,101886.97
2022-10-08T06:24:16.670Z,101889.50
2022-10-08T06:26:44.587Z,101892.06
2022-10-08T06:29:16.314Z,101896.41
2022-10-08T06:31:44.861Z,101894.59
2022-10-08T06:34:15.503Z,101905.06
2022-10-08T06:36:42.902Z,101910.31
2022-10-08T06:39:14.570Z,101903.44
2022-10-08T06:41:43.474Z,101909.66
2022-10-08T06:44:13.689Z,101912.41
2022-10-08T06:46:42.831Z,101916.81
2022-10-08T06:49:12.018Z,101916.91
2022-10-08T06:51:40.458Z,101921.25
2022-10-08T06:54:09.339Z,101926.56
2022-10-08T06:56:38.527Z,101931.88
2022-10-08T06:59:06.489Z,101939.88
2022-10-08T07:01:36.310Z,101940.06
2022-10-08T07:04:05.471Z,101940.22
2022-10-08T07:06:33.255Z,101942.13
2022-10-08T07:09:04.026Z,101951.91
2022-10-08T07:11:33.796Z,101950.22
2022-10-08T07:14:01.444Z,101961.78
2022-10-08T07:16:30.286Z,101970.59
2022-10-08T07:19:00.320Z,101972.44
2022-10-08T07:21:30.133Z,101981.38
2022-10-08T07:23:59.919Z,101974.44
2022-10-08T07:26:33.235Z,101979.88
2022-10-08T07:29:05.690Z,101983.47
2022-10-08T07:31:36.614Z,101987.09
2022-10-08T07:34:10.101Z,101988.09
2022-10-08T07:36:39.413Z,101989.06
2022-10-08T07:39:11.724Z,101998.03
2022-10-08T07:41:39.203Z,101999.97
2022-10-08T07:44:08.214Z,101996.59
2022-10-08T07:46:37.691Z,102003.78
2022-10-08T07:49:05.253Z,102005.66
2022-10-08T07:51:34.931Z,102008.47
2022-10-08T07:54:05.573Z,102008.69
2022-10-08T07:56:35.334Z,102012.47
2022-10-08T07:59:03.946Z,102011.91
2022-10-08T08:01:35.309Z,102004.88
2022-10-08T08:04:10.074Z,102005.69
2022-10-08T08:06:42.212Z,102012.72
2022-10-08T08:09:10.538Z,102009.19
2022-10-08T08:11:40.049Z,102016.28
2022-10-08T08:14:08.934Z,102014.47
2022-10-08T08:16:37.229Z,102013.56
2022-10-08T08:19:05.368Z,102018.56
2022-10-08T08:21:36.844Z,102018.63
2022-10-08T08:24:07.675Z,102012.66
2022-10-08T08:26:38.038Z,102012.09
2022-10-08T08:29:09.287Z,102016.44
2022-10-08T08:31:41.077Z,102019.84
2022-10-08T08:34:11.577Z,102023.22
2022-10-08T08:36:41.510Z,102024.09
2022-10-08T08:39:15.095Z,102024.28
2022-10-08T08:42:00.340Z,102025.50
2022-10-08T08:44:36.587Z,102033.50
2022-10-08T08:47:21.724Z,102034.25
2022-10-08T08:49:52.789Z,102028.31
2022-10-08T08:52:26.670Z,102035.09
2022-10-08T08:54:55.220Z,102040.03
2022-10-08T08:57:57.456Z,102042.63
2022-10-08T09:00:37.012Z,102053.53
2022-10-08T09:03:22.480Z,102050.91
2022-10-08T09:05:56.668Z,102052.53
2022-10-08T09:08:38.019Z,102045.97
2022-10-08T09:11:07.095Z,102044.47
2022-10-08T09:13:40.213Z,102044.16
2022-10-08T09:16:12.664Z,102042.72
2022-10-08T09:18:49.669Z,102053.50
2022-10-08T09:21:18.903Z,102058.63
2022-10-08T09:23:47.030Z,102055.00
2022-10-08T09:26:15.586Z,102063.63
2022-10-08T09:28:49.081Z,102058.09
2022-10-08T09:31:32.730Z,102058.56
2022-10-08T09:34:15.798Z,102057.97
2022-10-08T09:36:49.463Z,102056.13
2022-10-08T09:39:29.580Z,102058.66
2022-10-08T09:42:07.893Z,102052.66
2022-10-08T09:44:50.318Z,102059.94
2022-10-08T09:47:19.298Z,102056.09
2022-10-08T09:50:01.576Z,102050.81
2022-10-08T09:52:30.244Z,102057.28
2022-10-08T09:55:20.100Z,102051.53
2022-10-08T09:57:52.486Z,102048.09
2022-10-08T10:01:03.576Z,102053.03
2022-10-08T10:03:36.891Z,102059.03
2022-10-08T10:06:09.451Z,102048.66
2022-10-08T10:08:47.203Z,102047.44
2022-10-08T10:11:22.178Z,102046.75
2022-10-08T10:13:51.897Z,102055.41
2022-10-08T10:16:42.418Z,102048.91
2022-10-08T10:19:22.412Z,102050.72
2022-10-08T10:22:01.218Z,102054.69
2022-10-08T10:24:35.955Z,102055.97
2022-10-08T10:27:26.735Z,102056.06
2022-10-08T10:30:20.039Z,102055.66
2022-10-08T10:33:03.281Z,102047.09
2022-10-08T10:35:33.102Z,102055.47
2022-10-08T10:38:08.903Z,102050.28
2022-10-08T10:40:55.968Z,102043.56
2022-10-08T10:43:45.290Z,102053.28
2022-10-08T10:46:19.518Z,102055.41
2022-10-08T10:48:47.093Z,102063.66
2022-10-08T10:51:35.217Z,102054.56
2022-10-08T10:54:14.127Z,102055.28
2022-10-08T10:57:01.548Z,102057.00
2022-10-08T10:59:47.486Z,102055.47
2022-10-08T11:02:26.183Z,102054.47
2022-10-08T11:05:20.652Z,102063.16
2022-10-08T11:08:17.652Z,102055.66
2022-10-08T11:10:57.695Z,102052.59
2022-10-08T11:13:44.377Z,102046.38
2022-10-08T11:16:12.521Z,102055.19
2022-10-08T11:18:58.741Z,102039.41
2022-10-08T11:21:54.129Z,102044.25
2022-10-08T11:24:24.872Z,102045.00
2022-10-08T11:27:30.820Z,102041.44
2022-10-08T11:30:14.998Z,102043.13
2022-10-08T11:32:52.828Z,102043.34
2022-10-08T11:35:34.916Z,102049.66
2022-10-08T11:38:33.107Z,102039.69
2022-10-08T11:41:07.736Z,102034.97
2022-10-08T11:43:46.547Z,102037.16
2022-10-08T11:46:21.777Z,102037.06
2022-10-08T11:48:50.833Z,102033.44
2022-10-08T11:51:20.891Z,102034.50
2022-10-08T11:54:22.742Z,102033.59
2022-10-08T11:56:53.053Z,102028.41
2022-10-08T11:59:32.660Z,102033.09
2022-10-08T12:02:04.797Z,102029.69
2022-10-08T12:04:38.222Z,102025.28
2022-10-08T12:07:22.930Z,102025.34
2022-10-08T12:10:06.286Z,102023.66
2022-10-08T12:12:49.302Z,102033.31
2022-10-08T12:15:24.006Z,102022.88
2022-10-08T12:17:56.816Z,102020.31
2022-10-08T12:20:27.338Z,102017.69
2022-10-08T12:23:03.151Z,102020.41
2022-10-08T12:25:37.477Z,102019.44
2022-10-08T12:28:35.374Z,102014.91
2022-10-08T12:31:26.497Z,102004.31
2022-10-08T12:34:00.393Z,102005.97
2022-10-08T12:36:36.650Z,101997.06
2022-10-08T12:39:26.028Z,101997.03
2022-10-08T12:42:06.529Z,101987.94
2022-10-08T12:44:41.279Z,101986.75
2022-10-08T12:47:20.602Z,101975.44
2022-10-08T12:50:04.922Z,101985.19
2022-10-08T12:52:37.347Z,101977.22
2022-10-08T12:55:17.028Z,101969.47
2022-10-08T12:57:48.645Z,101968.66
2022-10-08T13:00:25.876Z,101973.16
2022-10-08T13:03:00.954Z,101971.28
2022-10-08T13:05:31.055Z,101968.63
2022-10-08T13:07:59.241Z,101970.38
2022-10-08T13:10:30.393Z,101963.41
2022-10-08T13:13:03.314Z,101968.84
2022-10-08T13:15:35.359Z,101961.91
2022-10-08T13:18:15.232Z,101960.94
2022-10-08T13:21:02.795Z,101955.72
2022-10-08T13:23:39.751Z,101952.25
2022-10-08T13:26:41.863Z,101948.88
2022-10-08T13:29:22.811Z,101951.53
2022-10-08T13:32:14.426Z,101956.03
2022-10-08T13:34:46.505Z,101946.25
2022-10-08T13:37:36.820Z,101939.16
2022-10-08T13:40:18.162Z,101939.97
2022-10-08T13:42:51.785Z,101936.31
2022-10-08T13:45:22.001Z,101943.28
2022-10-08T13:47:50.902Z,101937.91
2022-10-08T13:50:19.554Z,101939.84
2022-10-08T13:52:54.772Z,101937.28
2022-10-08T13:55:31.456Z,101933.72
2022-10-08T13:58:02.227Z,101935.59
2022-10-08T14:00:31.749Z,101932.94
2022-10-08T14:02:59.414Z,101932.97
2022-10-08T14:05:30.223Z,101923.28
2022-10-08T14:08:03.391Z,101925.91
2022-10-08T14:10:33.567Z,101921.34
2022-10-08T14:13:00.927Z,101937.19
2022-10-08T14:15:29.933Z,101926.59
2022-10-08T14:17:57.262Z,101923.88
2022-10-08T14:20:25.584Z,101932.56
2022-10-08T14:22:54.949Z,101918.53
2022-10-08T14:25:25.751Z,101922.84
2022-10-08T14:27:53.211Z,101916.81
2022-10-08T14:30:21.435Z,101916.13
2022-10-08T14:32:49.649Z,101911.72
2022-10-08T14:35:17.394Z,101907.25
2022-10-08T14:37:45.786Z,101908.09
2022-10-08T14:40:21.968Z,101912.50
2022-10-08T14:42:50.886Z,101904.53
2022-10-08T14:45:18.926Z,101895.72
2022-10-08T14:47:47.434Z,101897.44
2022-10-08T14:50:15.732Z,101898.22
2022-10-08T14:52:44.638Z,101900.81
2022-10-08T14:55:13.333Z,101897.47
2022-10-08T14:57:41.196Z,101889.63
2022-10-08T15:00:09.659Z,101894.97
2022-10-08T15:02:38.003Z,101894.97
2022-10-08T15:05:07.899Z,101888.72
2022-10-08T15:07:39.239Z,101880.84
2022-10-08T15:10:07.195Z,101877.34
2022-10-08T15:12:35.769Z,101886.19
2022-10-08T15:15:03.646Z,101879.13
2022-10-08T15:17:31.785Z,101878.16
2022-10-08T15:20:00.454Z,101871.16
2022-10-08T15:22:28.358Z,101877.38
2022-10-08T15:24:55.744Z,101869.44
2022-10-08T15:27:24.358Z,101875.59
2022-10-08T15:29:52.479Z,101873.91
2022-10-08T15:32:20.582Z,101875.72
2022-10-08T15:34:47.965Z,101869.66
2022-10-08T15:37:15.787Z,101875.00
2022-10-08T15:39:43.352Z,101875.00
2022-10-08T15:42:12.633Z,101880.31
2022-10-08T15:44:46.349Z,101875.88
2022-10-08T15:47:16.581Z,101867.06
2022-10-08T15:49:45.920Z,101867.97
2022-10-08T15:52:16.397Z,101874.13
2022-10-08T15:54:44.480Z,101869.72
2022-10-08T15:57:13.703Z,101867.97
2022-10-08T15:59:42.501Z,101867.13
2022-10-08T16:02:16.565Z,101867.09
2022-10-08T16:04:48.451Z,101861.84
2022-10-08T16:07:17.477Z,101861.03
2022-10-08T16:09:46.393Z,101859.28
2022-10-08T16:12:15.845Z,101858.47
2022-10-08T16:14:43.265Z,101858.47
2022-10-08T16:17:10.868Z,101859.31
2022-10-08T16:19:38.491Z,101859.31
2022-10-08T16:22:08.156Z,101870.75
2022-10-08T16:24:36.736Z,101860.25
2022-10-08T16:27:04.302Z,101862.94
2022-10-08T16:29:32.502Z,101856.78
2022-10-08T16:32:01.386Z,101866.50
2022-10-08T16:34:28.901Z,101867.44
2022-10-08T16:37:00.494Z,101869.16
2022-10-08T16:39:28.088Z,101872.63
2022-10-08T16:41:59.307Z,101860.34
2022-10-08T16:44:28.140Z,101876.22
2022-10-08T16:46:55.477Z,101865.66
2022-10-08T16:49:25.800Z,101869.13
2022-10-08T16:52:00.149Z,101866.53
2022-10-08T16:54:28.939Z,101862.13
2022-10-08T16:56:57.154Z,101864.78
2022-10-08T16:59:28.245Z,101866.59
2022-10-08T17:01:58.751Z,101860.47
2022-10-08T17:04:27.917Z,101865.75
2022-10-08T17:06:55.771Z,101866.63
2022-10-08T17:09:23.649Z,101868.38
2022-10-08T17:11:52.662Z,101861.34
2022-10-08T17:14:20.114Z,101859.56
2022-10-08T17:16:49.199Z,101868.41
2022-10-08T17:19:17.139Z,101869.31
2022-10-08T17:21:45.102Z,101862.22
2022-10-08T17:24:14.086Z,101857.84
2022-10-08T17:26:44.022Z,101861.44
2022-10-08T17:29:12.997Z,101864.94
2022-10-08T17:31:40.663Z,101862.31
2022-10-08T17:34:09.443Z,101864.94
2022-10-08T17:36:42.032Z,101866.72
2022-10-08T17:39:13.930Z,101868.47
2022-10-08T17:41:43.923Z,101871.09
2022-10-08T17:44:12.151Z,101871.13
2022-10-08T17:46:46.102Z,101871.97
2022-10-08T17:49:20.900Z,101878.16
2022-10-08T17:51:51.094Z,101877.28
2022-10-08T17:54:20.652Z,101872.84
2022-10-08T17:56:48.918Z,101875.47
2022-10-08T17:59:19.890Z,101877.25
2022-10-08T18:01:47.741Z,101873.72
2022-10-08T18:04:18.442Z,101875.47
2022-10-08T18:06:47.570Z,101876.31
2022-10-08T18:09:21.144Z,101880.72
2022-10-08T18:11:52.255Z,101876.28
2022-10-08T18:14:22.219Z,101882.44
2022-10-08T18:16:50.543Z,101885.06
2022-10-08T18:19:19.108Z,101886.81
2022-10-08T18:21:46.770Z,101891.16
2022-10-08T18:24:15.111Z,101892.91
2022-10-08T18:26:43.446Z,101894.69
2022-10-08T18:29:13.717Z,101899.06
2022-10-08T18:31:42.795Z,101892.03
2022-10-08T18:34:17.369Z,101899.06
2022-10-08T18:36:46.332Z,101889.34
2022-10-08T18:39:18.092Z,101898.00
2022-10-08T18:41:50.639Z,101894.38
2022-10-08T18:44:21.612Z,101898.81
2022-10-08T18:46:49.937Z,101893.41
2022-10-08T18:49:22.271Z,101896.88
2022-10-08T18:51:50.411Z,101891.63
2022-10-08T18:54:17.900Z,101896.81
2022-10-08T18:56:46.525Z,101894.25
2022-10-08T18:59:16.456Z,101895.94
2022-10-08T19:01:47.363Z,101891.50
2022-10-08T19:04:20.681Z,101894.84
2022-10-08T19:06:50.537Z,101893.94
2022-10-08T19:09:18.154Z,101895.66
2022-10-08T19:11:49.419Z,101890.38
2022-10-08T19:14:20.168Z,101894.63
2022-10-08T19:16:49.773Z,101888.34
2022-10-08T19:19:28.220Z,101889.94
2022-10-08T19:21:56.263Z,101888.97
2022-10-08T19:24:25.647Z,101897.66
2022-10-08T19:26:57.350Z,101886.25
2022-10-08T19:29:29.484Z,101888.19
2022-10-08T19:31:58.634Z,101884.53
2022-10-08T19:34:27.230Z,101882.88
2022-10-08T19:36:54.728Z,101888.28
2022-10-08T19:39:29.132Z,101877.53
2022-10-08T19:41:58.114Z,101883.56
2022-10-08T19:44:26.047Z,101879.41
2022-10-08T19:46:54.766Z,101876.97
2022-10-08T19:49:22.606Z,101875.28
2022-10-08T19:51:50.475Z,101872.47
2022-10-08T19:54:19.414Z,101871.63
2022-10-08T19:56:46.835Z,101871.47
2022-10-08T19:59:14.246Z,101870.44
2022-10-08T20:01:42.726Z,101881.78
2022-10-08T20:04:10.699Z,101871.94
2022-10-08T20:06:40.849Z,101865.63
2022-10-08T20:09:12.138Z,101866.44
2022-10-08T20:11:41.373Z,101872.31
2022-10-08T20:14:09.621Z,101872.59
2022-10-08T20:16:40.304Z,101871.09
2022-10-08T20:19:20.713Z,101868.44
2022-10-08T20:21:50.796Z,101864.72
2022-10-08T20:24:19.774Z,101866.56
2022-10-08T20:26:51.283Z,101856.81
2022-10-08T20:29:23.648Z,101855.00
2022-10-08T20:31:57.383Z,101856.72
2022-10-08T20:34:28.721Z,101862.06
2022-10-08T20:36:58.136Z,101855.84
2022-10-08T20:39:25.878Z,101854.81
2022-10-08T20:41:55.616Z,101853.06
2022-10-08T20:44:23.090Z,101845.19
2022-10-08T20:46:53.139Z,101847.81
2022-10-08T20:49:20.683Z,101844.34
2022-10-08T20:51:48.812Z,101850.69
2022-10-08T20:54:16.959Z,101841.66
2022-10-08T20:56:45.279Z,101836.34
2022-10-08T20:59:18.532Z,101832.72
2022-10-08T21:01:46.625Z,101830.94
2022-10-08T21:04:14.186Z,101830.94
2022-10-08T21:06:44.957Z,101835.28
2022-10-08T21:09:13.755Z,101834.44
2022-10-08T21:11:42.772Z,101832.91
2022-10-08T21:14:11.363Z,101827.47
2022-10-08T21:16:40.247Z,101830.94
2022-10-08T21:19:12.478Z,101836.97
2022-10-08T21:21:41.275Z,101825.78
2022-10-08T21:24:09.547Z,101830.19
2022-10-08T21:26:40.656Z,101823.91
2022-10-08T21:29:11.592Z,101831.75
2022-10-08T21:31:41.634Z,101825.56
2022-10-08T21:34:10.410Z,101824.66
2022-10-08T21:36:40.166Z,101821.00
2022-10-08T21:39:10.749Z,101820.91
2022-10-08T21:41:38.924Z,101819.97
2022-10-08T21:44:08.017Z,101824.41
2022-10-08T21:46:39.794Z,101822.78
2022-10-08T21:49:14.383Z,101821.00
2022-10-08T21:51:44.496Z,101820.84
2022-10-08T21:54:12.596Z,101815.34
2022-10-08T21:56:41.575Z,101813.63
2022-10-08T21:59:14.395Z,101811.84
2022-10-08T22:01:45.661Z,101817.09
2022-10-08T22:04:24.531Z,101815.19
2022-10-08T22:06:57.750Z,101815.88
2022-10-08T22:09:29.672Z,101814.06
2022-10-08T22:11:59.066Z,101820.31
2022-10-08T22:14:27.240Z,101823.00
2022-10-08T22:16:54.894Z,101825.72
2022-10-08T22:19:23.250Z,101820.31
2022-10-08T22:21:52.773Z,101820.44
2022-10-08T22:24:20.231Z,101821.41
2022-10-08T22:26:49.315Z,101816.16
2022-10-08T22:29:16.785Z,101815.25
2022-10-08T22:31:46.894Z,101816.91
2022-10-08T22:34:16.996Z,101819.34
2022-10-08T22:36:45.274Z,101811.34
2022-10-08T22:39:13.508Z,101811.34
2022-10-08T22:41:40.919Z,101816.56
2022-10-08T22:44:08.644Z,101798.97
2022-10-08T22:46:39.049Z,101795.53
2022-10-08T22:49:07.907Z,101794.47
2022-10-08T22:51:35.206Z,101795.31
2022-10-08T22:54:02.406Z,101800.47
2022-10-08T22:56:31.072Z,101790.72
2022-10-08T22:59:00.698Z,101789.94
2022-10-08T23:01:29.248Z,101788.00
2022-10-08T23:03:56.875Z,101782.81
2022-10-08T23:06:28.337Z,101782.78
2022-10-08T23:08:56.661Z,101780.97
2022-10-08T23:11:24.364Z,101773.00
2022-10-08T23:13:53.402Z,101759.09
2022-10-08T23:16:21.127Z,101758.09
2022-10-08T23:18:59.240Z,101759.84
2022-10-08T23:21:26.473Z,101756.41
2022-10-08T23:23:56.038Z,101753.81
2022-10-08T23:26:25.817Z,101756.34
2022-10-08T23:28:54.339Z,101752.91
2022-10-08T23:31:24.308Z,101751.91
2022-10-08T23:33:52.198Z,101744.03
2022-10-08T23:36:22.011Z,101746.53
2022-10-08T23:38:49.352Z,101743.75
2022-10-08T23:41:17.298Z,101745.38
2022-10-08T23:43:45.974Z,101742.75
2022-10-08T23:46:14.598Z,101746.94
2022-10-08T23:48:42.243Z,101747.78
2022-10-08T23:51:12.485Z,101739.16
2022-10-08T23:53:40.411Z,101735.56
2022-10-08T23:56:10.042Z,101732.91
2022-10-08T23:58:37.804Z,101735.13
